Terminal Aerodrome Forecast
Issued by NWS Atlanta, GA

Home | Current Version | Previous Version | Text Only | Print | Product List | Glossary On
Versions: 1 2 3 4 5 6 7 8 9 10 11 12 13 14 15 16
981
FTUS42 KFFC 241121
TAFCSG
TAF
KCSG 241121Z 2412/2512 35003KT P6SM BKN080
     FM241400 20004KT P6SM SCT080
     FM241700 20005KT P6SM FEW050
     FM241900 21007KT P6SM FEW050
     FM250000 20004KT P6SM SKC=

USA.gov is the U.S. government's official web portal to all federal, state and local government web resources and services.